Flight Track Log - Related Links

Times and Time Zones

All times are in EDT time to prevent confusion due to time zone crossing. See the CSZ9844 flight status page for this flight to view local times or setup timezone preferences in your user account.

Time Position Orientation Groundspeed Altitude Reporting Facility
EDT Latitude Longitude Course Direction KTS MPH feet Rate Location/Type
Fri 09:29:00 PM 20.3399 110.9484 49° Northeast  Level Estimated
Fri 09:30:00 PM 20.3904 111.0098 49° Northeast  Level Estimated
Fri 09:31:00 PM 20.4410 111.0712 49° Northeast  Level Estimated
Fri 09:32:00 PM 20.4914 111.1327 49° Northeast  Level Estimated
Fri 09:33:00 PM 20.5419 111.1941 49° Northeast  Level Estimated
Fri 09:34:00 PM 20.5924 111.2557 49° Northeast  Level Estimated
Fri 09:35:00 PM 20.6428 111.3172 49° Northeast  Level Estimated
Fri 09:36:00 PM 20.6932 111.3788 49° Northeast  Level Estimated
Fri 09:37:00 PM 20.7436 111.4405 49° Northeast  Level Estimated
Fri 09:38:00 PM 20.7939 111.5022 49° Northeast  Level Estimated
Fri 09:39:00 PM 20.8443 111.5639 49° Northeast  Level Estimated
Fri 09:40:00 PM 20.8946 111.6257 49° Northeast  Level Estimated
Fri 09:41:00 PM 20.9449 111.6875 49° Northeast  Level Estimated
Fri 09:42:00 PM 20.9952 111.7493 49° Northeast  Level Estimated
Fri 09:43:00 PM 21.0454 111.8112 49° Northeast  Level Estimated
Fri 09:44:00 PM 21.0956 111.8732 49° Northeast  Level Estimated
Fri 09:45:00 PM 21.1458 111.9352 49° Northeast  Level Estimated
Fri 09:46:00 PM 21.1960 111.9972 49° Northeast  Level Estimated
Fri 09:47:00 PM 21.2462 112.0592 49° Northeast  Level Estimated
Fri 09:48:00 PM 21.2963 112.1213 49° Northeast  Level Estimated
Fri 09:49:00 PM 21.3465 112.1835 49° Northeast  Level Estimated
Fri 09:50:00 PM 21.3965 112.2457 49° Northeast  Level Estimated
Fri 09:51:00 PM 21.4466 112.3079 49° Northeast  Level Estimated
Fri 09:52:00 PM 21.4967 112.3702 49° Northeast  Level Estimated
Fri 09:53:00 PM 21.5467 112.4325 49° Northeast  Level Estimated
Fri 09:54:00 PM 21.5967 112.4949 49° Northeast  Level Estimated
Fri 09:55:00 PM 21.6467 112.5573 49° Northeast  Level Estimated
Fri 09:56:00 PM 21.6966 112.6197 49° Northeast  Level Estimated
Fri 09:57:00 PM 21.7465 112.6822 49° Northeast  Level Estimated
Fri 09:58:00 PM 21.7964 112.7448 49° Northeast  Level Estimated
Fri 09:59:00 PM 21.8463 112.8073 49° Northeast  Level Estimated
Fri 10:00:00 PM 21.8962 112.8699 49° Northeast  Level Estimated
Fri 10:01:00 PM 21.9460 112.9326 49° Northeast  Level Estimated
Fri 10:02:00 PM 21.9958 112.9953 49° Northeast  Level Estimated
Fri 10:03:00 PM 22.0456 113.0581 49° Northeast  Level Estimated
Fri 10:04:00 PM 22.0954 113.1209 49° Northeast  Level Estimated
Fri 10:05:00 PM 22.1451 113.1837 49° Northeast  Level Estimated
Fri 10:06:00 PM 22.1948 113.2466 50° Northeast  Level Estimated
Fri 10:07:00 PM 22.2445 113.3095 50° Northeast  Level Estimated
Fri 10:08:00 PM 22.2942 113.3725 50° Northeast  Level Estimated
Fri 10:09:00 PM 22.3438 113.4355 50° Northeast  Level Estimated
Fri 10:10:00 PM 22.3935 113.4986 50° Northeast  Level Estimated
Fri 10:11:00 PM 22.4431 113.5617 50° Northeast  Level Estimated
Fri 10:12:00 PM 22.4926 113.6249 50° Northeast  Level Estimated
Fri 10:13:00 PM 22.5422 113.6881 50° Northeast  Level Estimated
Fri 10:14:00 PM 22.5917 113.7513 50° Northeast  Level Estimated
Fri 10:15:00 PM 22.6395 113.8124 50° Northeast  Level Estimated
Fri 10:16:00 PM 22.6395 113.8124 North  Level Estimated
Fri 10:17:00 PM 22.6395 113.8124 North  Level Estimated
Fri 10:18:00 PM 22.6395 113.8124 North  Level Estimated
Fri 10:19:00 PM 22.6395 113.8124 North  Level Estimated
Fri 10:20:00 PM 22.6395 113.8124 North  Level Estimated
Fri 10:21:00 PM 22.6395 113.8124 North  Level Estimated
Fri 10:22:00 PM 22.6395 113.8124 North  Level Estimated
Fri 10:23:00 PM 22.6395 113.8124 North  Level Estimated
Fri 10:24:00 PM 22.6395 113.8124 North  Level Estimated
Fri 10:25:00 PM 22.6395 113.8124 North  Level Estimated

Login

Don't have an account? Register now (free) for customized features, flight alerts, and more!